Mason Cove, Virginia
Current Conditions -  °F | °C
As of 6:54 AM on Sunday 21 Dec 2014 (Local Time) from KROA Reporting Station
Overcast Overcast  
Wind Chill: 35°   Ceiling: 4700
Heat Index: 35°   Visibility: 10mi
Dew Point: 27°   Wind: 0mph
Humidity: 72%   Direction: NA
Pressure: 30.28"   Gusts: NA
Location:  37.2956°N, 80.1166°W
Report Text: KROA 211154Z 00000KT 10SM OVC047 02/M03 A3028 RMK AO2 SLP262 T00171028 10022 20017 53009
Loading
Personal Weather Stations






























Interactive Weather Map New forecast layout! Learn more

10-Day Weather Forecast

Advertisements
Track Severe Weather on mobile